createdAt,value
2018-09-09T00:01:05.826Z,98758.66
2018-09-09T00:03:38.018Z,98759.70
2018-09-09T00:06:13.602Z,98762.94
2018-09-09T00:08:43.217Z,98765.31
2018-09-09T00:11:13.081Z,98760.36
2018-09-09T00:13:42.388Z,98759.66
2018-09-09T00:16:11.447Z,98755.59
2018-09-09T00:18:40.816Z,98762.97
2018-09-09T00:21:09.623Z,98771.48
2018-09-09T00:23:39.271Z,98764.88
2018-09-09T00:26:08.410Z,98764.14
2018-09-09T00:28:37.650Z,98764.61
2018-09-09T00:31:06.948Z,98768.31
2018-09-09T00:33:35.865Z,98771.88
2018-09-09T00:36:04.741Z,98770.30
2018-09-09T00:38:33.799Z,98771.39
2018-09-09T00:41:02.648Z,98770.66
2018-09-09T00:43:31.773Z,98765.70
2018-09-09T00:46:01.471Z,98767.84
2018-09-09T00:48:31.136Z,98771.66
2018-09-09T00:51:05.326Z,98777.77
2018-09-09T00:53:39.489Z,98770.64
2018-09-09T00:56:08.492Z,98772.82
2018-09-09T00:58:38.204Z,98773.59
2018-09-09T01:01:12.428Z,98773.95
2018-09-09T01:03:41.654Z,98775.89
2018-09-09T01:06:10.651Z,98781.97
2018-09-09T01:08:39.566Z,98778.75
2018-09-09T01:11:10.436Z,98776.31
2018-09-09T01:13:39.337Z,98777.23
2018-09-09T01:16:08.411Z,98779.33
2018-09-09T01:18:37.463Z,98778.57
2018-09-09T01:21:06.696Z,98780.21
2018-09-09T01:23:35.713Z,98781.63
2018-09-09T01:26:04.728Z,98773.67
2018-09-09T01:28:33.854Z,98776.52
2018-09-09T01:31:03.417Z,98779.27
2018-09-09T01:33:33.010Z,98773.09
2018-09-09T01:36:02.605Z,98777.94
2018-09-09T01:38:31.541Z,98778.77
2018-09-09T01:41:00.585Z,98776.33
2018-09-09T01:43:29.490Z,98779.09
2018-09-09T01:45:59.081Z,98777.47
2018-09-09T01:48:29.192Z,98782.67
2018-09-09T01:50:57.917Z,98786.73
2018-09-09T01:53:27.653Z,98783.94
2018-09-09T01:55:56.795Z,98788.64
2018-09-09T01:58:25.596Z,98784.11
2018-09-09T02:00:54.491Z,98786.39
2018-09-09T02:03:23.504Z,98786.11
2018-09-09T02:05:52.344Z,98782.88
2018-09-09T02:08:21.276Z,98783.98
2018-09-09T02:10:50.160Z,98779.78
2018-09-09T02:13:19.137Z,98782.17
2018-09-09T02:15:48.142Z,98781.09
2018-09-09T02:18:17.158Z,98779.82
2018-09-09T02:20:46.032Z,98780.34
2018-09-09T02:23:15.067Z,98781.53
2018-09-09T02:25:44.167Z,98773.17
2018-09-09T02:28:13.050Z,98773.44
2018-09-09T02:30:42.158Z,98779.39
2018-09-09T02:33:11.561Z,98777.69
2018-09-09T02:35:40.781Z,98781.27
2018-09-09T02:38:09.924Z,98782.44
2018-09-09T02:40:38.920Z,98784.80
2018-09-09T02:43:08.276Z,98788.48
2018-09-09T02:45:37.196Z,98789.06
2018-09-09T02:48:06.059Z,98784.99
2018-09-09T02:50:35.070Z,98787.64
2018-09-09T02:53:04.091Z,98793.90
2018-09-09T02:55:32.925Z,98801.17
2018-09-09T02:58:02.469Z,98794.27
2018-09-09T03:00:31.097Z,98794.37
2018-09-09T03:03:00.325Z,98793.80
2018-09-09T03:11:28.074Z,98798.23
2018-09-09T03:13:57.204Z,98797.95
2018-09-09T03:16:26.301Z,98788.61
2018-09-09T03:18:56.704Z,98782.80
2018-09-09T03:21:25.522Z,98783.66
2018-09-09T03:23:54.359Z,98785.85
2018-09-09T03:26:23.315Z,98781.59
2018-09-09T03:28:52.490Z,98783.19
2018-09-09T03:31:21.249Z,98773.46
2018-09-09T03:33:50.135Z,98779.05
2018-09-09T03:36:19.405Z,98769.56
2018-09-09T03:38:48.497Z,98766.27
2018-09-09T03:41:17.405Z,98768.91
2018-09-09T03:43:47.073Z,98769.95
2018-09-09T03:46:15.995Z,98765.69
2018-09-09T03:48:44.885Z,98771.45
2018-09-09T03:51:13.964Z,98768.80
2018-09-09T03:53:43.031Z,98769.01
2018-09-09T03:56:12.094Z,98779.22
2018-09-09T03:58:41.263Z,98776.11
2018-09-09T04:01:10.082Z,98773.35
2018-09-09T04:03:38.837Z,98781.70
2018-09-09T04:06:07.589Z,98785.68
2018-09-09T04:08:36.667Z,98785.04
2018-09-09T04:11:11.495Z,98786.66
2018-09-09T04:13:42.084Z,98790.05
2018-09-09T04:16:12.313Z,98789.00
2018-09-09T04:18:43.003Z,98789.73
2018-09-09T04:21:12.193Z,98791.80
2018-09-09T04:23:41.196Z,98800.09
2018-09-09T04:26:10.176Z,98803.91
2018-09-09T04:28:39.145Z,98796.72
2018-09-09T04:31:07.990Z,98810.47
2018-09-09T04:33:36.913Z,98819.84
2018-09-09T04:36:05.928Z,98821.72
2018-09-09T04:38:34.966Z,98824.20
2018-09-09T04:41:03.986Z,98828.22
2018-09-09T04:43:33.110Z,98824.38
2018-09-09T04:46:02.237Z,98820.59
2018-09-09T04:48:31.416Z,98826.05
2018-09-09T04:51:00.399Z,98824.02
2018-09-09T04:53:29.314Z,98826.38
2018-09-09T04:55:58.158Z,98827.84
2018-09-09T04:58:27.171Z,98825.84
2018-09-09T05:00:56.062Z,98824.94
2018-09-09T05:03:24.947Z,98820.00
2018-09-09T05:05:53.986Z,98820.50
2018-09-09T05:08:23.016Z,98822.31
2018-09-09T05:10:52.585Z,98826.39
2018-09-09T05:13:21.877Z,98830.39
2018-09-09T05:15:51.071Z,98832.80
2018-09-09T05:18:19.786Z,98841.02
2018-09-09T05:20:48.672Z,98839.75
2018-09-09T05:23:17.503Z,98843.46
2018-09-09T05:25:46.416Z,98839.99
2018-09-09T05:28:15.175Z,98846.23
2018-09-09T05:30:44.171Z,98844.89
2018-09-09T05:33:13.332Z,98851.81
2018-09-09T05:35:42.493Z,98847.81
2018-09-09T05:38:11.673Z,98849.54
2018-09-09T05:40:40.641Z,98851.89
2018-09-09T05:43:09.378Z,98855.75
2018-09-09T05:45:38.008Z,98857.39
2018-09-09T05:48:07.407Z,98860.56
2018-09-09T05:50:37.245Z,98858.70
2018-09-09T05:53:06.853Z,98865.20
2018-09-09T05:55:35.736Z,98865.16
2018-09-09T05:58:04.670Z,98861.10
2018-09-09T06:00:33.606Z,98863.92
2018-09-09T06:03:02.617Z,98857.90
2018-09-09T06:05:31.552Z,98862.62
2018-09-09T06:08:00.417Z,98866.50
2018-09-09T06:10:29.544Z,98863.50
2018-09-09T06:12:58.434Z,98864.39
2018-09-09T06:15:27.397Z,98868.18
2018-09-09T06:17:56.755Z,98869.59
2018-09-09T06:20:25.715Z,98870.38
2018-09-09T06:22:54.594Z,98867.16
2018-09-09T06:25:23.748Z,98873.00
2018-09-09T06:27:52.707Z,98872.28
2018-09-09T06:30:21.510Z,98883.73
2018-09-09T06:32:50.947Z,98880.27
2018-09-09T06:35:20.247Z,98876.50
2018-09-09T06:37:49.292Z,98880.63
2018-09-09T06:40:18.317Z,98881.81
2018-09-09T06:42:47.820Z,98882.94
2018-09-09T06:45:16.884Z,98877.96
2018-09-09T06:47:46.163Z,98879.87
2018-09-09T06:50:15.035Z,98882.39
2018-09-09T06:52:44.017Z,98875.82
2018-09-09T06:55:13.223Z,98877.22
2018-09-09T06:57:48.622Z,98874.81
2018-09-09T07:00:17.956Z,98879.53
2018-09-09T07:02:47.185Z,98859.73
2018-09-09T07:05:17.084Z,98861.20
2018-09-09T07:07:45.925Z,98861.98
2018-09-09T07:10:15.513Z,98864.02
2018-09-09T07:12:44.635Z,98858.66
2018-09-09T07:15:13.655Z,98858.48
2018-09-09T07:17:42.615Z,98867.34
2018-09-09T07:20:11.562Z,98867.89
2018-09-09T07:22:42.260Z,98873.23
2018-09-09T07:25:11.123Z,98876.31
2018-09-09T07:27:39.948Z,98876.62
2018-09-09T07:30:09.087Z,98878.17
2018-09-09T07:32:38.251Z,98877.52
2018-09-09T07:35:07.176Z,98881.17
2018-09-09T07:37:36.204Z,98873.91
2018-09-09T07:40:05.050Z,98880.55
2018-09-09T07:42:36.585Z,98882.00
2018-09-09T07:45:05.580Z,98877.88
2018-09-09T07:47:34.826Z,98882.90
2018-09-09T07:50:03.699Z,98885.82
2018-09-09T07:52:32.739Z,98879.75
2018-09-09T07:55:01.682Z,98879.33
2018-09-09T07:57:30.652Z,98885.59
2018-09-09T07:59:59.427Z,98885.91
2018-09-09T08:02:28.351Z,98881.34
2018-09-09T08:04:57.351Z,98885.91
2018-09-09T08:07:26.145Z,98883.02
2018-09-09T08:09:55.081Z,98888.84
2018-09-09T08:12:24.901Z,98875.45
2018-09-09T08:14:53.857Z,98878.48
2018-09-09T08:17:22.871Z,98879.36
2018-09-09T08:19:51.894Z,98886.27
2018-09-09T08:22:20.905Z,98884.19
2018-09-09T08:24:50.031Z,98885.41
2018-09-09T08:27:19.081Z,98891.80
2018-09-09T08:29:47.973Z,98895.14
2018-09-09T08:35:43.819Z,98907.06
2018-09-09T08:38:12.692Z,98898.87
2018-09-09T08:40:42.982Z,98913.52
2018-09-09T08:43:12.093Z,98911.56
2018-09-09T08:45:41.147Z,98905.05
2018-09-09T08:48:10.005Z,98904.69
2018-09-09T08:50:38.684Z,98905.23
2018-09-09T08:53:07.702Z,98908.77
2018-09-09T08:55:36.476Z,98896.50
2018-09-09T08:58:05.365Z,98907.58
2018-09-09T09:00:34.197Z,98897.84
2018-09-09T09:03:03.066Z,98891.33
2018-09-09T09:05:31.837Z,98885.80
2018-09-09T09:08:01.466Z,98887.77
2018-09-09T09:10:30.505Z,98884.75
2018-09-09T09:12:59.532Z,98878.34
2018-09-09T09:15:28.598Z,98885.69
2018-09-09T09:17:57.356Z,98888.02
2018-09-09T09:20:26.271Z,98883.18
2018-09-09T09:22:55.196Z,98886.52
2018-09-09T09:25:24.115Z,98885.95
2018-09-09T09:27:52.847Z,98886.69
2018-09-09T09:30:21.898Z,98882.86
2018-09-09T09:32:51.416Z,98879.70
2018-09-09T09:35:20.056Z,98884.02
2018-09-09T09:37:49.585Z,98879.20
2018-09-09T09:40:18.625Z,98872.76
2018-09-09T09:42:47.592Z,98878.22
2018-09-09T09:45:16.511Z,98876.34
2018-09-09T09:47:45.321Z,98875.59
2018-09-09T09:50:14.219Z,98879.52
2018-09-09T09:52:48.068Z,98877.66
2018-09-09T09:55:16.834Z,98875.09
2018-09-09T09:57:45.561Z,98875.48
2018-09-09T10:00:19.447Z,98873.82
2018-09-09T10:02:48.660Z,98859.92
2018-09-09T10:05:19.017Z,98868.52
2018-09-09T10:07:47.753Z,98864.75
2018-09-09T10:10:17.222Z,98870.23
2018-09-09T10:12:46.015Z,98865.25
2018-09-09T10:15:15.067Z,98873.80
2018-09-09T10:17:45.933Z,98871.09
2018-09-09T10:20:14.912Z,98869.88
2018-09-09T10:22:43.951Z,98870.33
2018-09-09T10:25:12.716Z,98868.75
2018-09-09T10:27:41.748Z,98862.72
2018-09-09T10:30:12.292Z,98867.54
2018-09-09T10:32:41.271Z,98869.03
2018-09-09T10:35:10.120Z,98865.63
2018-09-09T10:37:39.038Z,98859.45
2018-09-09T10:40:08.932Z,98864.75
2018-09-09T10:42:37.766Z,98854.01
2018-09-09T10:45:07.050Z,98861.70
2018-09-09T10:47:35.943Z,98859.02
2018-09-09T10:52:57.252Z,98853.83
2018-09-09T10:55:26.088Z,98859.00
2018-09-09T10:57:55.011Z,98855.64
2018-09-09T11:00:24.441Z,98852.54
2018-09-09T11:02:55.656Z,98856.16
2018-09-09T11:05:24.657Z,98859.95
2018-09-09T11:07:55.956Z,98856.99
2018-09-09T11:10:27.845Z,98852.97
2018-09-09T11:12:56.903Z,98854.23
2018-09-09T11:15:25.861Z,98848.17
2018-09-09T11:17:55.342Z,98850.30
2018-09-09T11:20:24.243Z,98846.75
2018-09-09T11:22:53.101Z,98848.73
2018-09-09T11:25:22.165Z,98845.47
2018-09-09T11:27:50.925Z,98837.80
2018-09-09T11:30:19.804Z,98844.91
2018-09-09T11:32:48.675Z,98832.12
2018-09-09T11:36:33.312Z,98841.14
2018-09-09T11:39:02.524Z,98832.47
2018-09-09T11:41:31.428Z,98834.73
2018-09-09T11:44:00.491Z,98830.77
2018-09-09T11:46:29.284Z,98821.72
2018-09-09T11:48:58.237Z,98827.16
2018-09-09T11:51:27.364Z,98824.53
2018-09-09T11:53:56.749Z,98829.57
2018-09-09T11:56:25.604Z,98825.50
2018-09-09T11:58:54.891Z,98821.33
2018-09-09T12:01:23.871Z,98828.27
2018-09-09T12:03:52.761Z,98821.48
2018-09-09T12:06:21.651Z,98821.77
2018-09-09T12:08:50.433Z,98812.32
2018-09-09T12:11:20.110Z,98817.23
2018-09-09T12:13:49.272Z,98817.95
2018-09-09T12:16:18.591Z,98812.41
2018-09-09T12:18:47.704Z,98817.22
2018-09-09T12:21:17.055Z,98814.03
2018-09-09T12:23:47.057Z,98813.03
2018-09-09T12:26:17.868Z,98818.00
2018-09-09T12:28:46.906Z,98811.53
2018-09-09T12:31:16.509Z,98809.55
2018-09-09T12:33:45.516Z,98817.89
2018-09-09T12:36:14.504Z,98807.30
2018-09-09T12:38:43.517Z,98807.13
2018-09-09T12:41:12.366Z,98801.88
2018-09-09T12:43:46.437Z,98793.39
2018-09-09T12:46:20.874Z,98795.13
2018-09-09T12:48:54.685Z,98800.23
2018-09-09T12:51:23.635Z,98789.97
2018-09-09T12:53:52.394Z,98793.52
2018-09-09T12:56:21.226Z,98795.85
2018-09-09T12:58:50.168Z,98798.73
2018-09-09T13:01:19.562Z,98799.82
2018-09-09T13:03:48.658Z,98798.85
2018-09-09T13:06:17.922Z,98799.14
2018-09-09T13:08:46.727Z,98791.29
2018-09-09T13:11:16.069Z,98790.52
2018-09-09T13:13:44.817Z,98787.30
2018-09-09T13:16:13.606Z,98790.31
2018-09-09T13:18:42.702Z,98784.06
2018-09-09T13:21:11.693Z,98783.41
2018-09-09T13:23:40.685Z,98790.39
2018-09-09T13:26:09.514Z,98789.14
2018-09-09T13:28:38.318Z,98779.59
2018-09-09T13:31:07.012Z,98777.92
2018-09-09T13:33:35.892Z,98779.73
2018-09-09T13:36:04.742Z,98782.86
2018-09-09T13:38:33.841Z,98784.34
2018-09-09T13:41:02.792Z,98788.13
2018-09-09T13:43:31.971Z,98783.35
2018-09-09T13:46:00.939Z,98782.50
2018-09-09T13:48:30.740Z,98783.46
2018-09-09T13:50:59.982Z,98776.09
2018-09-09T13:53:29.794Z,98776.89
2018-09-09T13:55:58.503Z,98776.86
2018-09-09T13:58:27.529Z,98772.03
2018-09-09T14:00:56.381Z,98770.81
2018-09-09T14:03:25.072Z,98771.60
2018-09-09T14:05:54.023Z,98770.73
2018-09-09T14:08:22.806Z,98760.92
2018-09-09T14:10:51.735Z,98762.31
2018-09-09T14:13:20.612Z,98759.00
2018-09-09T14:15:49.776Z,98755.07
2018-09-09T14:18:18.515Z,98757.73
2018-09-09T14:20:47.316Z,98755.73
2018-09-09T14:23:16.181Z,98758.13
2018-09-09T14:25:45.098Z,98752.30
2018-09-09T14:28:13.870Z,98750.95
2018-09-09T14:30:42.853Z,98745.20
2018-09-09T14:33:11.798Z,98746.75
2018-09-09T14:35:40.700Z,98743.50
2018-09-09T14:38:09.631Z,98745.08
2018-09-09T14:40:38.419Z,98749.88
2018-09-09T14:43:07.574Z,98752.53
2018-09-09T14:45:36.349Z,98746.91
2018-09-09T14:48:05.036Z,98741.88
2018-09-09T14:50:34.017Z,98742.52
2018-09-09T14:53:03.206Z,98746.98
2018-09-09T14:55:32.700Z,98742.36
2018-09-09T14:58:01.619Z,98735.42
2018-09-09T15:00:30.609Z,98739.25
2018-09-09T15:02:59.581Z,98742.77
2018-09-09T15:05:28.411Z,98735.96
2018-09-09T15:07:57.170Z,98742.29
2018-09-09T15:10:25.978Z,98739.79
2018-09-09T15:12:54.819Z,98738.55
2018-09-09T15:15:24.327Z,98739.14
2018-09-09T15:17:53.082Z,98737.28
2018-09-09T15:20:23.057Z,98732.73
2018-09-09T15:22:51.970Z,98738.39
2018-09-09T15:25:20.578Z,98729.72
2018-09-09T15:27:50.212Z,98728.50
2018-09-09T15:30:19.770Z,98727.95
2018-09-09T15:32:48.643Z,98727.94
2018-09-09T15:35:17.536Z,98722.59
2018-09-09T15:37:46.656Z,98718.47
2018-09-09T15:40:15.621Z,98718.55
2018-09-09T15:42:44.285Z,98715.94
2018-09-09T15:45:13.694Z,98718.47
2018-09-09T15:47:42.733Z,98724.31
2018-09-09T15:50:12.076Z,98720.78
2018-09-09T15:52:40.943Z,98722.42
2018-09-09T15:55:09.810Z,98722.86
2018-09-09T15:57:38.536Z,98712.58
2018-09-09T16:00:07.686Z,98724.53
2018-09-09T16:02:36.399Z,98724.38
2018-09-09T16:05:05.317Z,98717.15
2018-09-09T16:07:34.293Z,98714.45
2018-09-09T16:10:04.180Z,98719.59
2018-09-09T16:12:32.914Z,98722.77
2018-09-09T16:15:02.293Z,98720.84
2018-09-09T16:17:31.535Z,98726.13
2018-09-09T16:20:00.842Z,98728.70
2018-09-09T16:22:30.145Z,98732.89
2018-09-09T16:24:59.021Z,98733.06
2018-09-09T16:27:27.879Z,98736.89
2018-09-09T16:29:56.865Z,98733.48
2018-09-09T16:32:25.657Z,98735.35
2018-09-09T16:34:54.575Z,98735.35
2018-09-09T16:37:23.309Z,98735.35
2018-09-09T16:39:52.330Z,98729.81
2018-09-09T16:42:21.478Z,98732.82
2018-09-09T16:44:50.341Z,98732.11
2018-09-09T16:47:19.424Z,98736.94
2018-09-09T16:49:48.162Z,98734.91
2018-09-09T16:52:17.168Z,98734.14
2018-09-09T16:54:45.950Z,98737.00
2018-09-09T16:57:15.180Z,98735.61
2018-09-09T16:59:44.491Z,98736.87
2018-09-09T17:02:13.675Z,98730.66
2018-09-09T17:04:42.715Z,98731.69
2018-09-09T17:07:12.102Z,98733.19
2018-09-09T17:09:41.869Z,98737.77
2018-09-09T17:12:10.832Z,98737.62
2018-09-09T17:14:39.871Z,98732.16
2018-09-09T17:17:08.760Z,98734.87
2018-09-09T17:19:38.121Z,98734.50
2018-09-09T17:22:07.452Z,98728.78
2018-09-09T17:24:36.533Z,98729.94
2018-09-09T17:27:06.103Z,98731.06
2018-09-09T17:29:35.267Z,98735.17
2018-09-09T17:32:04.177Z,98732.53
2018-09-09T17:34:32.927Z,98742.24
2018-09-09T17:37:02.347Z,98741.77
2018-09-09T17:39:31.424Z,98742.45
2018-09-09T17:42:00.245Z,98739.78
2018-09-09T17:44:29.078Z,98741.98
2018-09-09T17:46:58.447Z,98747.16
2018-09-09T17:49:27.433Z,98750.70
2018-09-09T17:51:56.381Z,98757.73
2018-09-09T17:54:25.279Z,98755.95
2018-09-09T17:56:55.100Z,98756.57
2018-09-09T17:59:24.075Z,98762.75
2018-09-09T18:01:52.904Z,98757.50
2018-09-09T18:04:21.655Z,98753.15
2018-09-09T18:06:50.731Z,98754.20
2018-09-09T18:09:20.984Z,98756.42
2018-09-09T18:11:50.422Z,98759.95
2018-09-09T18:14:19.196Z,98755.42
2018-09-09T18:16:48.272Z,98766.13
2018-09-09T18:19:17.170Z,98765.64
2018-09-09T18:21:50.639Z,98767.32
2018-09-09T18:24:20.125Z,98770.83
2018-09-09T18:26:49.680Z,98771.34
2018-09-09T18:29:19.184Z,98769.13
2018-09-09T18:31:48.208Z,98769.98
2018-09-09T18:34:17.676Z,98774.44
2018-09-09T18:36:47.175Z,98778.63
2018-09-09T18:39:16.249Z,98780.72
2018-09-09T18:41:44.904Z,98778.27
2018-09-09T18:44:14.133Z,98782.87
2018-09-09T18:46:43.572Z,98779.08
2018-09-09T18:49:13.171Z,98768.17
2018-09-09T18:51:42.195Z,98783.60
2018-09-09T18:54:11.215Z,98778.74
2018-09-09T18:56:40.343Z,98790.77
2018-09-09T18:59:09.556Z,98791.25
2018-09-09T19:01:39.229Z,98797.14
2018-09-09T19:04:07.889Z,98798.50
2018-09-09T19:06:39.771Z,98796.06
2018-09-09T19:09:09.596Z,98791.77
2018-09-09T19:11:38.276Z,98802.77
2018-09-09T19:14:07.042Z,98802.72
2018-09-09T19:16:36.459Z,98801.59
2018-09-09T19:19:05.288Z,98803.77
2018-09-09T19:21:34.327Z,98800.88
2018-09-09T19:24:03.129Z,98804.54
2018-09-09T19:26:32.434Z,98805.54
2018-09-09T19:29:01.574Z,98811.92
2018-09-09T19:31:30.505Z,98816.17
2018-09-09T19:33:59.373Z,98815.02
2018-09-09T19:37:31.479Z,98815.95
2018-09-09T19:40:00.416Z,98811.55
2018-09-09T19:42:29.858Z,98807.88
2018-09-09T19:44:58.821Z,98819.10
2018-09-09T19:47:27.963Z,98826.02
2018-09-09T19:49:56.910Z,98825.39
2018-09-09T19:52:26.327Z,98826.17
2018-09-09T19:54:57.435Z,98831.42
2018-09-09T19:57:30.364Z,98829.56
2018-09-09T20:00:00.479Z,98825.94
2018-09-09T20:02:31.604Z,98832.91
2018-09-09T20:05:00.781Z,98828.81
2018-09-09T20:07:30.237Z,98833.17
2018-09-09T20:09:59.202Z,98832.23
2018-09-09T20:12:29.592Z,98832.77
2018-09-09T20:14:58.772Z,98838.22
2018-09-09T20:17:27.545Z,98841.30
2018-09-09T20:19:56.530Z,98839.09
2018-09-09T20:22:25.725Z,98843.80
2018-09-09T20:24:54.458Z,98841.36
2018-09-09T20:27:23.465Z,98848.31
2018-09-09T20:29:52.301Z,98845.55
2018-09-09T20:32:21.255Z,98857.09
2018-09-09T20:34:50.367Z,98854.36
2018-09-09T20:37:19.946Z,98855.70
2018-09-09T20:39:48.950Z,98850.99
2018-09-09T20:42:17.866Z,98854.03
2018-09-09T20:44:46.655Z,98851.37
2018-09-09T20:47:15.604Z,98851.61
2018-09-09T20:49:44.609Z,98860.62
2018-09-09T20:52:13.933Z,98866.61
2018-09-09T20:54:43.239Z,98863.94
2018-09-09T20:57:12.191Z,98869.03
2018-09-09T20:59:41.211Z,98861.88
2018-09-09T21:02:10.703Z,98866.98
2018-09-09T21:04:39.670Z,98871.47
2018-09-09T21:07:10.075Z,98870.38
2018-09-09T21:09:39.271Z,98873.65
2018-09-09T21:12:08.325Z,98873.87
2018-09-09T21:14:37.020Z,98877.04
2018-09-09T21:17:08.885Z,98877.88
2018-09-09T21:19:40.016Z,98876.45
2018-09-09T21:22:09.137Z,98882.00
2018-09-09T21:24:37.951Z,98879.11
2018-09-09T21:27:07.745Z,98870.98
2018-09-09T21:29:36.665Z,98881.66
2018-09-09T21:32:06.868Z,98878.70
2018-09-09T21:34:35.855Z,98882.97
2018-09-09T21:37:05.237Z,98883.93
2018-09-09T21:39:34.231Z,98885.27
2018-09-09T21:42:03.480Z,98888.66
2018-09-09T21:44:32.457Z,98886.20
2018-09-09T21:47:01.443Z,98882.58
2018-09-09T21:49:30.497Z,98889.41
2018-09-09T21:51:59.584Z,98888.21
2018-09-09T21:54:28.513Z,98877.66
2018-09-09T21:56:57.433Z,98884.45
2018-09-09T21:59:26.258Z,98882.56
2018-09-09T22:02:00.847Z,98882.47
2018-09-09T22:04:30.760Z,98877.94
2018-09-09T22:07:00.745Z,98878.06
2018-09-09T22:09:29.696Z,98880.91
2018-09-09T22:11:58.735Z,98881.17
2018-09-09T22:14:27.418Z,98885.38
2018-09-09T22:16:56.919Z,98879.14
2018-09-09T22:19:25.782Z,98880.13
2018-09-09T22:21:55.054Z,98884.65
2018-09-09T22:24:24.108Z,98885.03
2018-09-09T22:26:53.829Z,98881.60
2018-09-09T22:29:24.005Z,98891.27
2018-09-09T22:31:57.994Z,98887.75
2018-09-09T22:34:27.372Z,98886.94
2018-09-09T22:36:57.475Z,98886.75
2018-09-09T22:39:26.226Z,98893.23
2018-09-09T22:41:55.278Z,98892.70
2018-09-09T22:44:24.104Z,98890.64
2018-09-09T22:46:53.350Z,98890.53
2018-09-09T22:49:22.322Z,98881.53
2018-09-09T22:51:52.421Z,98881.87
2018-09-09T22:54:21.329Z,98879.61
2018-09-09T22:56:50.319Z,98876.61
2018-09-09T22:59:19.117Z,98871.16
2018-09-09T23:01:48.229Z,98874.30
2018-09-09T23:04:17.824Z,98872.70
2018-09-09T23:06:47.294Z,98866.16
2018-09-09T23:09:16.290Z,98866.52
2018-09-09T23:11:45.279Z,98875.95
2018-09-09T23:14:14.691Z,98883.80
2018-09-09T23:16:43.790Z,98878.54
2018-09-09T23:19:12.953Z,98884.54
2018-09-09T23:21:42.341Z,98880.73
2018-09-09T23:24:11.389Z,98887.78
2018-09-09T23:26:40.439Z,98884.80
2018-09-09T23:29:09.135Z,98879.75
2018-09-09T23:31:38.014Z,98877.50
2018-09-09T23:34:06.807Z,98875.48
2018-09-09T23:36:35.820Z,98872.31
2018-09-09T23:39:06.482Z,98873.36
2018-09-09T23:41:35.388Z,98878.09
2018-09-09T23:44:04.557Z,98874.22
2018-09-09T23:46:33.895Z,98873.73
2018-09-09T23:49:03.734Z,98875.06
2018-09-09T23:51:33.008Z,98866.02
2018-09-09T23:54:01.947Z,98859.06
2018-09-09T23:56:30.944Z,98860.91
2018-09-09T23:59:00.034Z,98866.67
